Wetterdaten: Woche 14.09.15 - 20.09.15 (KW38)
Datum Zeit Temperatur Luftfeuchte Luftdruck Niederschlag Windrichtung Sonnenschein Solar Wind
14.09.2015 00:00 12,7 C 93 % 1003,1 hPa 0,0 l/m N 0,00 h 0 W/m 0,0 km/h (0 Bft)
14.09.2015 01:00 13,0 C 95 % 1002,9 hPa 0,0 l/m W 0,00 h 0 W/m 4,3 km/h (1 Bft)
14.09.2015 02:00 13,8 C 94 % 1003,4 hPa 0,0 l/m W 0,00 h 0 W/m 6,0 km/h (2 Bft)
14.09.2015 03:00 14,2 C 92 % 1003,8 hPa 0,0 l/m W 0,00 h 0 W/m 1,5 km/h (1 Bft)
14.09.2015 04:00 13,9 C 92 % 1004,2 hPa 0,0 l/m W-SW 0,00 h 0 W/m 8,3 km/h (2 Bft)
14.09.2015 05:00 13,9 C 92 % 1005,3 hPa 2,0 l/m SW 0,00 h 0 W/m 14,6 km/h (3 Bft)
14.09.2015 06:00 13,1 C 94 % 1005,0 hPa 2,0 l/m SW 0,00 h 0 W/m 10,7 km/h (2 Bft)
14.09.2015 07:00 12,7 C 96 % 1005,0 hPa 1,2 l/m S-SW 0,00 h 11 W/m 14,9 km/h (3 Bft)
14.09.2015 08:00 12,5 C 96 % 1004,8 hPa 0,6 l/m SW 0,00 h 18 W/m 12,0 km/h (2 Bft)
14.09.2015 09:00 12,4 C 97 % 1004,6 hPa 0,4 l/m S-SW 0,00 h 44 W/m 5,3 km/h (1 Bft)
14.09.2015 10:00 13,0 C 98 % 1005,1 hPa 0,0 l/m SW 0,08 h 161 W/m 12,7 km/h (3 Bft)
14.09.2015 11:00 13,8 C 98 % 1005,1 hPa 0,0 l/m SW 0,08 h 184 W/m 17,8 km/h (3 Bft)
14.09.2015 12:00 14,8 C 96 % 1005,1 hPa 0,0 l/m SW 0,00 h 204 W/m 13,8 km/h (3 Bft)
14.09.2015 13:00 15,7 C 91 % 1005,2 hPa 0,0 l/m SW 0,33 h 399 W/m 18,9 km/h (3 Bft)
14.09.2015 14:00 16,7 C 84 % 1004,9 hPa 0,0 l/m SW 0,67 h 567 W/m 19,8 km/h (4 Bft)
14.09.2015 15:00 18,2 C 77 % 1004,7 hPa 0,0 l/m S-SW 0,67 h 539 W/m 16,8 km/h (3 Bft)
14.09.2015 16:00 18,1 C 75 % 1005,0 hPa 0,0 l/m SW 0,17 h 151 W/m 12,8 km/h (3 Bft)
14.09.2015 17:00 17,7 C 77 % 1005,0 hPa 0,0 l/m SW 0,17 h 112 W/m 10,2 km/h (2 Bft)
14.09.2015 18:00 15,8 C 85 % 1005,8 hPa 3,6 l/m W-SW 0,00 h 19 W/m 11,3 km/h (2 Bft)
14.09.2015 19:00 14,0 C 91 % 1007,7 hPa 0,8 l/m W-SW 0,00 h 0 W/m 17,2 km/h (3 Bft)
14.09.2015 20:00 13,0 C 92 % 1008,5 hPa 0,4 l/m W-SW 0,00 h 0 W/m 4,8 km/h (1 Bft)
14.09.2015 21:00 12,3 C 94 % 1008,9 hPa 0,0 l/m SW 0,00 h 0 W/m 10,3 km/h (2 Bft)
14.09.2015 22:00 12,2 C 96 % 1009,0 hPa 0,0 l/m SW 0,00 h 0 W/m 10,3 km/h (2 Bft)
14.09.2015 23:00 12,1 C 96 % 1009,4 hPa 0,0 l/m SW 0,00 h 0 W/m 10,9 km/h (2 Bft)
15.09.2015 00:00 11,9 C 97 % 1009,7 hPa 0,0 l/m SW 0,00 h 0 W/m 5,9 km/h (2 Bft)
15.09.2015 01:00 11,9 C 97 % 1009,6 hPa 0,0 l/m SW 0,00 h 0 W/m 7,9 km/h (2 Bft)
15.09.2015 02:00 11,7 C 97 % 1009,5 hPa 0,0 l/m SW 0,00 h 0 W/m 5,4 km/h (1 Bft)
15.09.2015 03:00 11,6 C 97 % 1009,6 hPa 0,0 l/m SW 0,00 h 0 W/m 3,5 km/h (1 Bft)
15.09.2015 04:00 11,5 C 97 % 1009,6 hPa 0,0 l/m SW 0,00 h 0 W/m 1,1 km/h (0 Bft)
15.09.2015 05:00 11,4 C 97 % 1009,3 hPa 0,0 l/m N 0,00 h 0 W/m 0,0 km/h (0 Bft)
15.09.2015 06:00 11,3 C 98 % 1009,1 hPa 0,0 l/m N 0,00 h 0 W/m 0,0 km/h (0 Bft)
15.09.2015 07:00 11,2 C 98 % 1008,9 hPa 0,0 l/m N 0,00 h 7 W/m 0,0 km/h (0 Bft)
15.09.2015 08:00 11,3 C 98 % 1008,7 hPa 0,0 l/m N 0,00 h 17 W/m 0,0 km/h (0 Bft)
15.09.2015 09:00 11,5 C 98 % 1009,0 hPa 0,0 l/m SW 0,00 h 46 W/m 1,1 km/h (0 Bft)
15.09.2015 10:00 12,0 C 98 % 1008,9 hPa 0,0 l/m SW 0,00 h 57 W/m 7,2 km/h (2 Bft)
15.09.2015 11:00 12,7 C 98 % 1008,8 hPa 0,0 l/m SW 0,00 h 118 W/m 9,8 km/h (2 Bft)
15.09.2015 12:00 13,5 C 96 % 1009,1 hPa 0,0 l/m SW 0,00 h 141 W/m 14,5 km/h (3 Bft)
15.09.2015 13:00 14,6 C 89 % 1008,9 hPa 0,0 l/m S-SW 0,00 h 148 W/m 14,5 km/h (3 Bft)
15.09.2015 14:00 15,1 C 82 % 1008,7 hPa 0,0 l/m SW 0,00 h 131 W/m 14,6 km/h (3 Bft)
15.09.2015 15:00 14,9 C 82 % 1008,6 hPa 0,0 l/m SW 0,00 h 72 W/m 10,2 km/h (2 Bft)
15.09.2015 16:00 14,6 C 81 % 1008,8 hPa 0,0 l/m SW 0,00 h 56 W/m 9,8 km/h (2 Bft)
15.09.2015 17:00 14,5 C 83 % 1008,9 hPa 0,0 l/m S-SW 0,00 h 31 W/m 5,9 km/h (2 Bft)
15.09.2015 18:00 13,9 C 87 % 1008,7 hPa 0,4 l/m S-SW 0,00 h 14 W/m 1,3 km/h (1 Bft)
15.09.2015 19:00 13,2 C 89 % 1007,7 hPa 0,2 l/m N 0,00 h 18 W/m 0,3 km/h (0 Bft)
15.09.2015 20:00 12,5 C 91 % 1006,8 hPa 0,0 l/m N 0,00 h 0 W/m 0,0 km/h (0 Bft)
15.09.2015 21:00 11,4 C 92 % 1006,7 hPa 0,0 l/m S-SW 0,00 h 0 W/m 1,2 km/h (1 Bft)
15.09.2015 22:00 10,9 C 94 % 1006,3 hPa 0,0 l/m N 0,00 h 0 W/m 0,7 km/h (0 Bft)
15.09.2015 23:00 10,9 C 96 % 1005,4 hPa 0,0 l/m S-SW 0,00 h 0 W/m 0,9 km/h (0 Bft)
16.09.2015 00:00 10,7 C 95 % 1004,7 hPa 0,0 l/m O-SO 0,00 h 0 W/m 2,9 km/h (1 Bft)
16.09.2015 01:00 11,1 C 94 % 1003,6 hPa 0,0 l/m O-SO 0,00 h 0 W/m 4,4 km/h (1 Bft)
16.09.2015 02:00 11,5 C 91 % 1002,6 hPa 0,0 l/m SO 0,00 h 0 W/m 2,7 km/h (1 Bft)
16.09.2015 03:00 11,3 C 90 % 1002,0 hPa 0,0 l/m SO 0,00 h 0 W/m 0,9 km/h (0 Bft)
16.09.2015 04:00 11,2 C 91 % 1001,5 hPa 0,0 l/m N 0,00 h 0 W/m 0,0 km/h (0 Bft)
16.09.2015 05:00 11,0 C 91 % 1001,1 hPa 0,0 l/m N 0,00 h 0 W/m 0,0 km/h (0 Bft)
16.09.2015 06:00 10,8 C 92 % 1000,9 hPa 0,0 l/m N 0,00 h 0 W/m 0,0 km/h (0 Bft)
16.09.2015 07:00 10,8 C 93 % 1000,6 hPa 0,0 l/m N 0,00 h 15 W/m 0,0 km/h (0 Bft)
16.09.2015 08:00 11,1 C 93 % 1000,8 hPa 0,0 l/m O-NO 0,00 h 36 W/m 1,1 km/h (0 Bft)
16.09.2015 09:00 11,9 C 94 % 1000,9 hPa 0,0 l/m O-NO 0,00 h 51 W/m 4,4 km/h (1 Bft)
16.09.2015 10:00 12,7 C 93 % 1000,6 hPa 0,0 l/m N 0,00 h 112 W/m 0,7 km/h (0 Bft)
16.09.2015 11:00 14,3 C 91 % 1000,2 hPa 0,0 l/m O-NO 0,08 h 195 W/m 3,7 km/h (1 Bft)
16.09.2015 12:00 16,3 C 87 % 999,7 hPa 0,0 l/m O-NO 0,00 h 167 W/m 5,6 km/h (1 Bft)
16.09.2015 13:00 17,6 C 85 % 999,8 hPa 0,0 l/m N-NO 0,00 h 114 W/m 4,3 km/h (1 Bft)
16.09.2015 14:00 17,4 C 85 % 1000,0 hPa 0,0 l/m N-NW 0,00 h 128 W/m 9,1 km/h (2 Bft)
16.09.2015 15:00 17,6 C 88 % 999,1 hPa 0,0 l/m N-NW 0,00 h 123 W/m 2,5 km/h (1 Bft)
16.09.2015 16:00 18,8 C 88 % 997,9 hPa 0,0 l/m N 0,08 h 187 W/m 1,2 km/h (1 Bft)
16.09.2015 17:00 21,2 C 77 % 996,9 hPa 0,0 l/m S 0,67 h 293 W/m 6,4 km/h (2 Bft)
16.09.2015 18:00 23,5 C 67 % 996,9 hPa 0,0 l/m S 0,42 h 114 W/m 1,6 km/h (1 Bft)
16.09.2015 19:00 21,6 C 74 % 996,7 hPa 0,0 l/m N 0,00 h 13 W/m 0,7 km/h (0 Bft)
16.09.2015 20:00 18,6 C 78 % 997,0 hPa 0,0 l/m S-SW 0,00 h 0 W/m 7,1 km/h (2 Bft)
16.09.2015 21:00 19,0 C 76 % 997,7 hPa 0,0 l/m W-NW 0,00 h 0 W/m 14,2 km/h (3 Bft)
16.09.2015 22:00 18,0 C 82 % 997,8 hPa 0,0 l/m N 0,00 h 0 W/m 0,5 km/h (0 Bft)
16.09.2015 23:00 16,1 C 87 % 997,9 hPa 0,0 l/m W-SW 0,00 h 0 W/m 1,2 km/h (1 Bft)
17.09.2015 00:00 14,9 C 90 % 997,8 hPa 0,0 l/m W-SW 0,00 h 0 W/m 1,3 km/h (1 Bft)
17.09.2015 01:00 14,2 C 93 % 998,6 hPa 0,0 l/m W 0,00 h 0 W/m 4,5 km/h (1 Bft)
17.09.2015 02:00 13,6 C 93 % 999,5 hPa 0,0 l/m N 0,00 h 0 W/m 0,9 km/h (0 Bft)
17.09.2015 03:00 12,9 C 93 % 999,9 hPa 0,0 l/m N 0,00 h 0 W/m 0,0 km/h (0 Bft)
17.09.2015 04:00 12,4 C 94 % 1000,4 hPa 0,0 l/m NW 0,00 h 0 W/m 0,7 km/h (0 Bft)
17.09.2015 05:00 12,3 C 95 % 1000,2 hPa 0,0 l/m N 0,00 h 0 W/m 0,1 km/h (0 Bft)
17.09.2015 06:00 12,3 C 96 % 1000,0 hPa 0,0 l/m NW 0,00 h 0 W/m 4,0 km/h (1 Bft)
17.09.2015 07:00 12,7 C 97 % 999,9 hPa 0,0 l/m N 0,00 h 23 W/m 6,8 km/h (2 Bft)
17.09.2015 08:00 13,5 C 98 % 999,7 hPa 0,0 l/m N 0,58 h 145 W/m 11,7 km/h (2 Bft)
17.09.2015 09:00 15,0 C 98 % 999,4 hPa 0,0 l/m N-NO 0,92 h 298 W/m 13,6 km/h (3 Bft)
17.09.2015 10:00 17,3 C 89 % 999,9 hPa 0,0 l/m N-NW 0,75 h 472 W/m 15,4 km/h (3 Bft)
17.09.2015 11:00 18,0 C 78 % 1001,2 hPa 0,0 l/m N-NW 0,17 h 212 W/m 21,2 km/h (4 Bft)
17.09.2015 12:00 16,0 C 75 % 1002,1 hPa 0,0 l/m N-NW 0,00 h 119 W/m 22,5 km/h (4 Bft)
17.09.2015 13:00 15,3 C 78 % 1003,5 hPa 0,0 l/m W-NW 0,00 h 68 W/m 15,0 km/h (3 Bft)
17.09.2015 14:00 14,6 C 81 % 1005,3 hPa 0,0 l/m W-NW 0,00 h 61 W/m 15,8 km/h (3 Bft)
17.09.2015 15:00 13,4 C 89 % 1007,4 hPa 1,4 l/m W-SW 0,00 h 73 W/m 14,9 km/h (3 Bft)
17.09.2015 16:00 12,3 C 92 % 1009,4 hPa 1,0 l/m W-SW 0,00 h 64 W/m 20,4 km/h (4 Bft)
17.09.2015 17:00 11,5 C 93 % 1009,7 hPa 1,0 l/m SW 0,00 h 27 W/m 18,4 km/h (3 Bft)
17.09.2015 18:00 11,0 C 95 % 1009,8 hPa 0,4 l/m SW 0,00 h 24 W/m 20,1 km/h (4 Bft)
17.09.2015 19:00 10,9 C 96 % 1010,4 hPa 0,0 l/m W-SW 0,08 h 11 W/m 14,9 km/h (3 Bft)
17.09.2015 20:00 10,7 C 96 % 1010,8 hPa 0,0 l/m SW 0,00 h 0 W/m 7,9 km/h (2 Bft)
17.09.2015 21:00 10,6 C 96 % 1011,5 hPa 0,0 l/m SW 0,00 h 0 W/m 3,5 km/h (1 Bft)
17.09.2015 22:00 10,2 C 96 % 1012,2 hPa 0,0 l/m N 0,00 h 0 W/m 0,9 km/h (0 Bft)
17.09.2015 23:00 10,1 C 96 % 1012,9 hPa 0,0 l/m N 0,00 h 0 W/m 2,0 km/h (1 Bft)
18.09.2015 00:00 10,1 C 97 % 1013,3 hPa 0,0 l/m SW 0,00 h 0 W/m 2,3 km/h (1 Bft)
18.09.2015 01:00 10,1 C 97 % 1013,7 hPa 0,0 l/m N 0,00 h 0 W/m 0,0 km/h (0 Bft)
18.09.2015 02:00 10,2 C 97 % 1013,7 hPa 0,0 l/m SW 0,00 h 0 W/m 2,1 km/h (1 Bft)
18.09.2015 03:00 10,2 C 97 % 1013,9 hPa 0,0 l/m SW 0,00 h 0 W/m 3,6 km/h (1 Bft)
18.09.2015 04:00 10,2 C 97 % 1014,0 hPa 0,0 l/m SW 0,00 h 0 W/m 3,5 km/h (1 Bft)
18.09.2015 05:00 10,1 C 97 % 1014,0 hPa 0,0 l/m N 0,00 h 0 W/m 0,0 km/h (0 Bft)
18.09.2015 06:00 9,9 C 97 % 1014,0 hPa 0,0 l/m N 0,00 h 0 W/m 0,0 km/h (0 Bft)
18.09.2015 07:00 10,0 C 98 % 1014,3 hPa 0,2 l/m N 0,00 h 11 W/m 1,1 km/h (0 Bft)
18.09.2015 08:00 10,3 C 98 % 1014,9 hPa 0,2 l/m N 0,00 h 56 W/m 1,7 km/h (1 Bft)
18.09.2015 09:00 11,3 C 98 % 1015,4 hPa 0,0 l/m SW 0,00 h 67 W/m 2,1 km/h (1 Bft)
18.09.2015 10:00 11,8 C 98 % 1016,3 hPa 0,0 l/m SW 0,00 h 56 W/m 2,0 km/h (1 Bft)
18.09.2015 11:00 12,4 C 99 % 1016,7 hPa 0,2 l/m SW 0,00 h 128 W/m 1,6 km/h (1 Bft)
18.09.2015 12:00 13,1 C 98 % 1017,2 hPa 0,0 l/m S-SW 0,00 h 156 W/m 13,2 km/h (3 Bft)
18.09.2015 13:00 13,4 C 96 % 1017,4 hPa 0,0 l/m S-SW 0,00 h 160 W/m 15,2 km/h (3 Bft)
18.09.2015 14:00 14,3 C 93 % 1017,4 hPa 0,0 l/m S-SW 0,00 h 245 W/m 14,6 km/h (3 Bft)
18.09.2015 15:00 15,2 C 89 % 1017,5 hPa 0,0 l/m S-SW 0,00 h 170 W/m 12,0 km/h (2 Bft)
18.09.2015 16:00 15,5 C 84 % 1017,6 hPa 0,0 l/m W-SW 0,00 h 120 W/m 14,6 km/h (3 Bft)
18.09.2015 17:00 14,6 C 81 % 1018,1 hPa 0,0 l/m W 0,00 h 32 W/m 9,4 km/h (2 Bft)
18.09.2015 18:00 13,9 C 85 % 1018,2 hPa 0,0 l/m N 0,00 h 20 W/m 0,7 km/h (0 Bft)
18.09.2015 19:00 13,6 C 88 % 1018,7 hPa 0,0 l/m W 0,00 h 13 W/m 4,5 km/h (1 Bft)
18.09.2015 20:00 12,8 C 90 % 1019,4 hPa 0,0 l/m W 0,00 h 0 W/m 5,6 km/h (1 Bft)
18.09.2015 21:00 11,9 C 91 % 1019,9 hPa 0,0 l/m N 0,00 h 0 W/m 0,9 km/h (0 Bft)
18.09.2015 22:00 10,7 C 91 % 1020,1 hPa 0,0 l/m N 0,00 h 0 W/m 0,0 km/h (0 Bft)
18.09.2015 23:00 9,7 C 92 % 1020,5 hPa 0,0 l/m N 0,00 h 0 W/m 0,0 km/h (0 Bft)
19.09.2015 00:00 8,6 C 92 % 1020,4 hPa 0,0 l/m N 0,00 h 0 W/m 0,0 km/h (0 Bft)
19.09.2015 01:00 7,8 C 93 % 1020,6 hPa 0,0 l/m N 0,00 h 0 W/m 0,0 km/h (0 Bft)
19.09.2015 02:00 7,1 C 93 % 1020,6 hPa 0,0 l/m N 0,00 h 0 W/m 0,0 km/h (0 Bft)
19.09.2015 03:00 6,6 C 94 % 1020,5 hPa 0,0 l/m N 0,00 h 0 W/m 0,0 km/h (0 Bft)
19.09.2015 04:00 6,1 C 95 % 1020,3 hPa 0,0 l/m N 0,00 h 0 W/m 0,0 km/h (0 Bft)
19.09.2015 05:00 6,3 C 96 % 1020,2 hPa 0,0 l/m N 0,00 h 0 W/m 0,0 km/h (0 Bft)
19.09.2015 06:00 6,3 C 96 % 1020,3 hPa 0,0 l/m N 0,00 h 0 W/m 0,0 km/h (0 Bft)
19.09.2015 07:00 6,0 C 96 % 1020,6 hPa 0,2 l/m N 0,00 h 21 W/m 0,0 km/h (0 Bft)
19.09.2015 08:00 6,3 C 97 % 1020,8 hPa 0,0 l/m N 0,00 h 63 W/m 0,4 km/h (0 Bft)
19.09.2015 09:00 8,3 C 98 % 1021,1 hPa 0,0 l/m W-SW 0,00 h 117 W/m 4,1 km/h (1 Bft)
19.09.2015 10:00 10,7 C 99 % 1021,2 hPa 0,0 l/m W-SW 0,83 h 505 W/m 6,4 km/h (2 Bft)
19.09.2015 11:00 12,9 C 99 % 1021,0 hPa 0,0 l/m S-SW 0,42 h 335 W/m 6,6 km/h (2 Bft)
19.09.2015 12:00 15,1 C 85 % 1020,8 hPa 0,0 l/m W 0,33 h 407 W/m 12,6 km/h (3 Bft)
19.09.2015 13:00 17,2 C 70 % 1020,4 hPa 0,0 l/m W-SW 0,83 h 673 W/m 13,4 km/h (3 Bft)
19.09.2015 14:00 18,5 C 64 % 1019,8 hPa 0,0 l/m SW 1,00 h 753 W/m 15,4 km/h (3 Bft)
19.09.2015 15:00 19,1 C 61 % 1019,5 hPa 0,0 l/m SW 0,58 h 419 W/m 13,4 km/h (3 Bft)
19.09.2015 16:00 16,7 C 67 % 1019,9 hPa 0,0 l/m N-NW 0,58 h 402 W/m 20,1 km/h (4 Bft)
19.09.2015 17:00 17,0 C 63 % 1019,9 hPa 0,0 l/m W-NW 1,00 h 321 W/m 12,5 km/h (3 Bft)
19.09.2015 18:00 16,4 C 68 % 1020,1 hPa 0,0 l/m NW 0,58 h 100 W/m 4,8 km/h (1 Bft)
19.09.2015 19:00 14,6 C 73 % 1020,5 hPa 0,0 l/m N-NW 0,08 h 9 W/m 4,3 km/h (1 Bft)
19.09.2015 20:00 12,8 C 80 % 1021,0 hPa 0,0 l/m N 0,00 h 0 W/m 1,1 km/h (0 Bft)
19.09.2015 21:00 11,6 C 88 % 1021,5 hPa 0,0 l/m N-NW 0,00 h 0 W/m 1,1 km/h (0 Bft)
19.09.2015 22:00 11,5 C 90 % 1022,1 hPa 0,0 l/m N 0,00 h 0 W/m 0,4 km/h (0 Bft)
19.09.2015 23:00 11,3 C 91 % 1022,5 hPa 0,0 l/m N 0,00 h 0 W/m 0,0 km/h (0 Bft)
20.09.2015 00:00 11,2 C 92 % 1022,5 hPa 0,0 l/m N 0,00 h 0 W/m 0,0 km/h (0 Bft)
20.09.2015 01:00 11,1 C 93 % 1022,3 hPa 0,0 l/m N 0,00 h 0 W/m 0,0 km/h (0 Bft)
20.09.2015 02:00 10,7 C 93 % 1022,1 hPa 0,0 l/m N 0,00 h 0 W/m 0,0 km/h (0 Bft)
20.09.2015 03:00 10,2 C 94 % 1022,0 hPa 0,0 l/m N 0,00 h 0 W/m 0,0 km/h (0 Bft)
20.09.2015 04:00 9,8 C 94 % 1021,8 hPa 0,0 l/m N 0,00 h 0 W/m 0,0 km/h (0 Bft)
20.09.2015 05:00 9,6 C 95 % 1021,6 hPa 0,0 l/m N 0,00 h 0 W/m 0,0 km/h (0 Bft)
20.09.2015 06:00 9,5 C 95 % 1021,8 hPa 0,0 l/m N 0,00 h 0 W/m 0,0 km/h (0 Bft)
20.09.2015 07:00 9,4 C 95 % 1022,0 hPa 0,0 l/m N 0,00 h 14 W/m 0,0 km/h (0 Bft)
20.09.2015 08:00 9,5 C 96 % 1022,0 hPa 0,0 l/m N 0,00 h 49 W/m 0,0 km/h (0 Bft)
20.09.2015 09:00 10,4 C 97 % 1022,3 hPa 0,0 l/m N 0,00 h 112 W/m 0,4 km/h (0 Bft)
20.09.2015 10:00 11,6 C 96 % 1022,5 hPa 0,0 l/m N 0,08 h 220 W/m 5,5 km/h (1 Bft)
20.09.2015 11:00 13,1 C 86 % 1022,5 hPa 0,0 l/m N 0,17 h 156 W/m 6,2 km/h (2 Bft)
20.09.2015 12:00 13,8 C 79 % 1022,4 hPa 0,0 l/m NO 0,00 h 176 W/m 3,5 km/h (1 Bft)
20.09.2015 13:00 14,4 C 77 % 1022,0 hPa 0,0 l/m O-NO 0,00 h 169 W/m 5,3 km/h (1 Bft)
20.09.2015 14:00 14,9 C 75 % 1021,7 hPa 0,0 l/m SO 0,00 h 155 W/m 4,5 km/h (1 Bft)
20.09.2015 15:00 16,3 C 70 % 1021,1 hPa 0,0 l/m SW 0,58 h 458 W/m 6,7 km/h (2 Bft)
20.09.2015 16:00 16,8 C 65 % 1020,8 hPa 0,0 l/m SW 0,00 h 86 W/m 5,3 km/h (1 Bft)
20.09.2015 17:00 15,1 C 71 % 1020,9 hPa 0,0 l/m NO 0,00 h 44 W/m 6,0 km/h (2 Bft)
20.09.2015 18:00 14,5 C 74 % 1020,9 hPa 0,0 l/m N 0,00 h 31 W/m 0,0 km/h (0 Bft)
20.09.2015 19:00 13,6 C 78 % 1021,1 hPa 0,0 l/m NO 0,00 h 9 W/m 1,7 km/h (1 Bft)
20.09.2015 20:00 11,8 C 82 % 1021,4 hPa 0,0 l/m N 0,00 h 0 W/m 0,8 km/h (0 Bft)
20.09.2015 21:00 10,5 C 87 % 1021,5 hPa 0,0 l/m N 0,00 h 0 W/m 0,7 km/h (0 Bft)
20.09.2015 22:00 9,5 C 89 % 1021,4 hPa 0,0 l/m N 0,00 h 0 W/m 0,7 km/h (0 Bft)
20.09.2015 23:00 8,8 C 91 % 1021,2 hPa 0,0 l/m N 0,00 h 0 W/m 0,0 km/h (0 Bft)
Min-Datum _ 19.09.15 19.09.15 16.09.15 - - - - 14.09.15
_ Min-Zeit 07:40 15:15 17:40 - - - - 00:00
Minimum _ 5,8 C 58 % 996,6 hPa - - - - 0,0 km/h (0 Bft)
Max-Datum _ 16.09.15 17.09.15 20.09.15 14.09.15 - 14.09.15 19.09.15 14.09.15
_ Max-Zeit 18:25 09:25 10:15 18:15 - 10:50 13:15 19:30
Maximum _ 23,8 C 100 % 1022,6 hPa 3,6 l/m - 0,08 h 933 W/m 35,4 km/h
W-SW (5 Bft)
Durchschnitt _ 12,9 C 90 % 1011,0 hPa #16,2 l/m SW #13:00 h 149 W/m 5,8 km/h (1 Bft)